sensor_id;sensor_type;location;lat;lon;timestamp;P1;durP1;ratioP1;P2;durP2;ratioP2
39264;SDS011;42646;51.910;7.724;2023-04-24T00:02:25;2.47;;;1.40;;
39264;SDS011;42646;51.910;7.724;2023-04-24T00:05:18;1.77;;;1.10;;
39264;SDS011;42646;51.910;7.724;2023-04-24T00:07:47;2.47;;;1.30;;
39264;SDS011;42646;51.910;7.724;2023-04-24T00:10:14;2.97;;;1.38;;
39264;SDS011;42646;51.910;7.724;2023-04-24T00:12:43;2.30;;;1.40;;
39264;SDS011;42646;51.910;7.724;2023-04-24T00:15:11;2.22;;;1.30;;
39264;SDS011;42646;51.910;7.724;2023-04-24T00:17:39;2.63;;;1.30;;
39264;SDS011;42646;51.910;7.724;2023-04-24T00:20:07;1.90;;;1.25;;
39264;SDS011;42646;51.910;7.724;2023-04-24T00:22:38;2.40;;;1.38;;
39264;SDS011;42646;51.910;7.724;2023-04-24T00:25:06;2.58;;;1.20;;
39264;SDS011;42646;51.910;7.724;2023-04-24T00:27:34;3.60;;;1.35;;
39264;SDS011;42646;51.910;7.724;2023-04-24T00:30:06;1.90;;;1.05;;
39264;SDS011;42646;51.910;7.724;2023-04-24T00:32:34;2.88;;;1.10;;
39264;SDS011;42646;51.910;7.724;2023-04-24T00:35:03;2.60;;;1.50;;
39264;SDS011;42646;51.910;7.724;2023-04-24T00:37:32;1.30;;;1.00;;
39264;SDS011;42646;51.910;7.724;2023-04-24T00:40:00;2.13;;;1.10;;
39264;SDS011;42646;51.910;7.724;2023-04-24T00:42:29;2.53;;;1.00;;
39264;SDS011;42646;51.910;7.724;2023-04-24T00:44:58;2.53;;;1.00;;
39264;SDS011;42646;51.910;7.724;2023-04-24T00:47:27;2.90;;;1.17;;
39264;SDS011;42646;51.910;7.724;2023-04-24T00:49:56;1.55;;;1.00;;
39264;SDS011;42646;51.910;7.724;2023-04-24T00:52:26;2.00;;;1.00;;
39264;SDS011;42646;51.910;7.724;2023-04-24T00:54:54;1.90;;;1.20;;
39264;SDS011;42646;51.910;7.724;2023-04-24T00:57:22;1.67;;;1.10;;
39264;SDS011;42646;51.910;7.724;2023-04-24T00:59:51;2.13;;;1.00;;
39264;SDS011;42646;51.910;7.724;2023-04-24T01:02:20;2.30;;;1.10;;
39264;SDS011;42646;51.910;7.724;2023-04-24T01:07:21;2.30;;;1.10;;
39264;SDS011;42646;51.910;7.724;2023-04-24T01:09:50;2.60;;;1.05;;
39264;SDS011;42646;51.910;7.724;2023-04-24T01:12:18;1.90;;;1.20;;
39264;SDS011;42646;51.910;7.724;2023-04-24T01:14:46;2.83;;;1.20;;
39264;SDS011;42646;51.910;7.724;2023-04-24T01:17:14;1.85;;;1.00;;
39264;SDS011;42646;51.910;7.724;2023-04-24T01:19:42;3.10;;;1.10;;
39264;SDS011;42646;51.910;7.724;2023-04-24T01:22:13;1.48;;;1.00;;
39264;SDS011;42646;51.910;7.724;2023-04-24T01:27:14;2.45;;;1.30;;
39264;SDS011;42646;51.910;7.724;2023-04-24T01:29:44;1.85;;;1.02;;
39264;SDS011;42646;51.910;7.724;2023-04-24T01:32:12;1.77;;;1.00;;
39264;SDS011;42646;51.910;7.724;2023-04-24T01:34:39;2.15;;;1.40;;
39264;SDS011;42646;51.910;7.724;2023-04-24T01:37:07;2.58;;;1.20;;
39264;SDS011;42646;51.910;7.724;2023-04-24T01:39:39;3.00;;;1.40;;
39264;SDS011;42646;51.910;7.724;2023-04-24T01:42:08;1.93;;;1.27;;
39264;SDS011;42646;51.910;7.724;2023-04-24T01:44:36;3.30;;;1.40;;
39264;SDS011;42646;51.910;7.724;2023-04-24T01:47:04;1.98;;;1.25;;
39264;SDS011;42646;51.910;7.724;2023-04-24T01:49:33;2.30;;;1.33;;
39264;SDS011;42646;51.910;7.724;2023-04-24T01:52:01;3.20;;;1.40;;
39264;SDS011;42646;51.910;7.724;2023-04-24T01:54:29;3.00;;;1.45;;
39264;SDS011;42646;51.910;7.724;2023-04-24T01:56:59;4.05;;;1.45;;
39264;SDS011;42646;51.910;7.724;2023-04-24T01:59:29;3.55;;;1.40;;
39264;SDS011;42646;51.910;7.724;2023-04-24T02:02:02;2.65;;;1.40;;
39264;SDS011;42646;51.910;7.724;2023-04-24T02:04:30;2.25;;;1.27;;
39264;SDS011;42646;51.910;7.724;2023-04-24T02:06:58;1.73;;;1.10;;
39264;SDS011;42646;51.910;7.724;2023-04-24T02:09:27;2.38;;;1.30;;
39264;SDS011;42646;51.910;7.724;2023-04-24T02:11:55;2.47;;;1.30;;
39264;SDS011;42646;51.910;7.724;2023-04-24T02:14:24;2.38;;;1.35;;
39264;SDS011;42646;51.910;7.724;2023-04-24T02:16:52;2.88;;;1.40;;
39264;SDS011;42646;51.910;7.724;2023-04-24T02:19:20;2.63;;;1.40;;
39264;SDS011;42646;51.910;7.724;2023-04-24T02:21:49;2.50;;;1.45;;
39264;SDS011;42646;51.910;7.724;2023-04-24T02:24:18;3.53;;;1.50;;
39264;SDS011;42646;51.910;7.724;2023-04-24T02:26:46;2.60;;;1.52;;
39264;SDS011;42646;51.910;7.724;2023-04-24T02:29:14;2.78;;;1.60;;
39264;SDS011;42646;51.910;7.724;2023-04-24T02:31:43;3.33;;;1.45;;
39264;SDS011;42646;51.910;7.724;2023-04-24T02:34:13;3.13;;;1.65;;
39264;SDS011;42646;51.910;7.724;2023-04-24T02:36:42;2.88;;;1.75;;
39264;SDS011;42646;51.910;7.724;2023-04-24T02:39:10;2.83;;;1.80;;
39264;SDS011;42646;51.910;7.724;2023-04-24T02:41:39;3.50;;;2.20;;
39264;SDS011;42646;51.910;7.724;2023-04-24T02:44:07;3.22;;;2.00;;
39264;SDS011;42646;51.910;7.724;2023-04-24T02:46:36;3.35;;;2.10;;
39264;SDS011;42646;51.910;7.724;2023-04-24T02:49:05;4.75;;;2.25;;
39264;SDS011;42646;51.910;7.724;2023-04-24T02:51:33;3.78;;;2.17;;
39264;SDS011;42646;51.910;7.724;2023-04-24T02:54:01;3.00;;;2.05;;
39264;SDS011;42646;51.910;7.724;2023-04-24T02:56:28;3.88;;;2.50;;
39264;SDS011;42646;51.910;7.724;2023-04-24T02:58:58;3.30;;;2.40;;
39264;SDS011;42646;51.910;7.724;2023-04-24T03:01:51;4.32;;;3.00;;
39264;SDS011;42646;51.910;7.724;2023-04-24T03:04:46;5.15;;;2.72;;
39264;SDS011;42646;51.910;7.724;2023-04-24T03:07:16;4.67;;;2.50;;
39264;SDS011;42646;51.910;7.724;2023-04-24T03:09:47;4.18;;;2.50;;
39264;SDS011;42646;51.910;7.724;2023-04-24T03:12:15;4.88;;;2.67;;
39264;SDS011;42646;51.910;7.724;2023-04-24T03:14:44;4.30;;;2.40;;
39264;SDS011;42646;51.910;7.724;2023-04-24T03:17:11;4.55;;;2.60;;
39264;SDS011;42646;51.910;7.724;2023-04-24T03:19:39;3.40;;;2.45;;
39264;SDS011;42646;51.910;7.724;2023-04-24T03:22:11;5.10;;;3.15;;
39264;SDS011;42646;51.910;7.724;2023-04-24T03:24:40;7.85;;;3.75;;
39264;SDS011;42646;51.910;7.724;2023-04-24T03:27:10;4.72;;;3.60;;
39264;SDS011;42646;51.910;7.724;2023-04-24T03:29:52;5.82;;;3.40;;
39264;SDS011;42646;51.910;7.724;2023-04-24T03:32:29;5.40;;;3.97;;
39264;SDS011;42646;51.910;7.724;2023-04-24T03:34:58;5.85;;;3.58;;
39264;SDS011;42646;51.910;7.724;2023-04-24T03:37:27;5.30;;;4.03;;
39264;SDS011;42646;51.910;7.724;2023-04-24T03:40:13;5.28;;;4.03;;
39264;SDS011;42646;51.910;7.724;2023-04-24T03:42:41;7.32;;;4.15;;
39264;SDS011;42646;51.910;7.724;2023-04-24T03:45:39;5.30;;;3.97;;
39264;SDS011;42646;51.910;7.724;2023-04-24T03:48:08;7.65;;;3.95;;
39264;SDS011;42646;51.910;7.724;2023-04-24T03:50:36;6.30;;;3.95;;
39264;SDS011;42646;51.910;7.724;2023-04-24T03:53:10;5.72;;;4.10;;
39264;SDS011;42646;51.910;7.724;2023-04-24T03:55:40;7.43;;;4.07;;
39264;SDS011;42646;51.910;7.724;2023-04-24T03:58:08;5.90;;;4.13;;
39264;SDS011;42646;51.910;7.724;2023-04-24T04:00:37;7.32;;;5.15;;
39264;SDS011;42646;51.910;7.724;2023-04-24T04:03:27;7.75;;;4.78;;
39264;SDS011;42646;51.910;7.724;2023-04-24T04:06:00;7.93;;;5.32;;
39264;SDS011;42646;51.910;7.724;2023-04-24T04:08:30;10.02;;;6.57;;
39264;SDS011;42646;51.910;7.724;2023-04-24T04:10:58;10.38;;;6.68;;
39264;SDS011;42646;51.910;7.724;2023-04-24T04:13:26;10.10;;;7.03;;
39264;SDS011;42646;51.910;7.724;2023-04-24T04:15:53;9.82;;;7.15;;
39264;SDS011;42646;51.910;7.724;2023-04-24T04:18:22;11.88;;;8.25;;
39264;SDS011;42646;51.910;7.724;2023-04-24T04:20:50;10.23;;;7.72;;
39264;SDS011;42646;51.910;7.724;2023-04-24T04:23:19;11.77;;;8.07;;
39264;SDS011;42646;51.910;7.724;2023-04-24T04:26:03;11.80;;;8.27;;
39264;SDS011;42646;51.910;7.724;2023-04-24T04:28:51;11.88;;;8.73;;
39264;SDS011;42646;51.910;7.724;2023-04-24T04:31:20;11.10;;;8.73;;
39264;SDS011;42646;51.910;7.724;2023-04-24T04:33:51;14.85;;;9.90;;
39264;SDS011;42646;51.910;7.724;2023-04-24T04:36:19;17.48;;;10.02;;
39264;SDS011;42646;51.910;7.724;2023-04-24T04:38:53;14.30;;;10.00;;
39264;SDS011;42646;51.910;7.724;2023-04-24T04:41:45;17.30;;;10.27;;
39264;SDS011;42646;51.910;7.724;2023-04-24T04:44:18;14.35;;;9.00;;
39264;SDS011;42646;51.910;7.724;2023-04-24T04:46:46;13.18;;;9.88;;
39264;SDS011;42646;51.910;7.724;2023-04-24T04:49:22;14.40;;;9.98;;
39264;SDS011;42646;51.910;7.724;2023-04-24T04:51:52;13.70;;;9.50;;
39264;SDS011;42646;51.910;7.724;2023-04-24T04:54:21;14.15;;;9.50;;
39264;SDS011;42646;51.910;7.724;2023-04-24T04:56:51;14.80;;;9.70;;
39264;SDS011;42646;51.910;7.724;2023-04-24T04:59:18;13.00;;;9.07;;
39264;SDS011;42646;51.910;7.724;2023-04-24T05:01:50;15.93;;;10.30;;
39264;SDS011;42646;51.910;7.724;2023-04-24T05:04:19;14.60;;;9.50;;
39264;SDS011;42646;51.910;7.724;2023-04-24T05:06:47;14.38;;;9.75;;
39264;SDS011;42646;51.910;7.724;2023-04-24T05:09:21;15.45;;;9.68;;
39264;SDS011;42646;51.910;7.724;2023-04-24T05:11:55;15.05;;;9.57;;
39264;SDS011;42646;51.910;7.724;2023-04-24T05:14:25;14.10;;;9.57;;
39264;SDS011;42646;51.910;7.724;2023-04-24T05:16:53;15.15;;;10.10;;
39264;SDS011;42646;51.910;7.724;2023-04-24T05:19:23;13.38;;;9.10;;
39264;SDS011;42646;51.910;7.724;2023-04-24T05:21:51;15.35;;;10.13;;
39264;SDS011;42646;51.910;7.724;2023-04-24T05:24:19;14.65;;;9.77;;
39264;SDS011;42646;51.910;7.724;2023-04-24T05:27:24;14.48;;;9.75;;
39264;SDS011;42646;51.910;7.724;2023-04-24T05:29:52;14.48;;;10.40;;
39264;SDS011;42646;51.910;7.724;2023-04-24T05:32:20;16.13;;;10.60;;
39264;SDS011;42646;51.910;7.724;2023-04-24T05:34:48;16.70;;;10.20;;
39264;SDS011;42646;51.910;7.724;2023-04-24T05:37:17;15.15;;;9.63;;
39264;SDS011;42646;51.910;7.724;2023-04-24T05:39:45;14.15;;;9.93;;
39264;SDS011;42646;51.910;7.724;2023-04-24T05:42:13;12.80;;;10.10;;
39264;SDS011;42646;51.910;7.724;2023-04-24T05:44:46;14.55;;;9.75;;
39264;SDS011;42646;51.910;7.724;2023-04-24T05:47:14;14.13;;;9.90;;
39264;SDS011;42646;51.910;7.724;2023-04-24T05:49:42;14.05;;;9.73;;
39264;SDS011;42646;51.910;7.724;2023-04-24T05:52:15;19.67;;;11.07;;
39264;SDS011;42646;51.910;7.724;2023-04-24T05:54:44;13.93;;;9.38;;
39264;SDS011;42646;51.910;7.724;2023-04-24T05:57:37;14.20;;;9.73;;
39264;SDS011;42646;51.910;7.724;2023-04-24T06:00:11;16.38;;;10.00;;
39264;SDS011;42646;51.910;7.724;2023-04-24T06:02:47;12.68;;;8.98;;
39264;SDS011;42646;51.910;7.724;2023-04-24T06:05:16;11.02;;;8.35;;
39264;SDS011;42646;51.910;7.724;2023-04-24T06:07:44;12.43;;;9.15;;
39264;SDS011;42646;51.910;7.724;2023-04-24T06:10:14;14.18;;;9.63;;
39264;SDS011;42646;51.910;7.724;2023-04-24T06:12:44;14.25;;;9.23;;
39264;SDS011;42646;51.910;7.724;2023-04-24T06:15:17;11.88;;;8.43;;
39264;SDS011;42646;51.910;7.724;2023-04-24T06:17:57;13.48;;;8.90;;
39264;SDS011;42646;51.910;7.724;2023-04-24T06:20:25;12.35;;;8.68;;
39264;SDS011;42646;51.910;7.724;2023-04-24T06:22:54;11.30;;;8.50;;
39264;SDS011;42646;51.910;7.724;2023-04-24T06:25:24;12.43;;;8.20;;
39264;SDS011;42646;51.910;7.724;2023-04-24T06:28:16;13.27;;;8.68;;
39264;SDS011;42646;51.910;7.724;2023-04-24T06:31:15;11.57;;;8.27;;
39264;SDS011;42646;51.910;7.724;2023-04-24T06:33:45;12.27;;;8.55;;
39264;SDS011;42646;51.910;7.724;2023-04-24T06:36:12;12.23;;;8.23;;
39264;SDS011;42646;51.910;7.724;2023-04-24T06:38:40;11.45;;;8.00;;
39264;SDS011;42646;51.910;7.724;2023-04-24T06:41:08;11.07;;;7.82;;
39264;SDS011;42646;51.910;7.724;2023-04-24T06:43:36;10.25;;;7.75;;
39264;SDS011;42646;51.910;7.724;2023-04-24T06:46:05;13.23;;;8.57;;
39264;SDS011;42646;51.910;7.724;2023-04-24T06:48:34;10.90;;;7.38;;
39264;SDS011;42646;51.910;7.724;2023-04-24T06:51:02;11.90;;;7.63;;
39264;SDS011;42646;51.910;7.724;2023-04-24T06:53:30;11.02;;;6.57;;
39264;SDS011;42646;51.910;7.724;2023-04-24T06:55:57;7.88;;;6.20;;
39264;SDS011;42646;51.910;7.724;2023-04-24T07:01:19;8.73;;;6.13;;
39264;SDS011;42646;51.910;7.724;2023-04-24T07:03:48;9.43;;;7.25;;
39264;SDS011;42646;51.910;7.724;2023-04-24T07:06:16;9.27;;;6.88;;
39264;SDS011;42646;51.910;7.724;2023-04-24T07:08:47;9.65;;;6.88;;
39264;SDS011;42646;51.910;7.724;2023-04-24T07:11:40;9.40;;;6.95;;
39264;SDS011;42646;51.910;7.724;2023-04-24T07:14:07;9.63;;;6.68;;
39264;SDS011;42646;51.910;7.724;2023-04-24T07:16:37;7.65;;;6.32;;
39264;SDS011;42646;51.910;7.724;2023-04-24T07:19:08;9.23;;;6.60;;
39264;SDS011;42646;51.910;7.724;2023-04-24T07:24:04;8.35;;;6.30;;
39264;SDS011;42646;51.910;7.724;2023-04-24T07:26:35;9.27;;;6.53;;
39264;SDS011;42646;51.910;7.724;2023-04-24T07:29:03;9.02;;;6.40;;
39264;SDS011;42646;51.910;7.724;2023-04-24T07:31:31;8.48;;;6.43;;
39264;SDS011;42646;51.910;7.724;2023-04-24T07:34:25;9.20;;;6.65;;
39264;SDS011;42646;51.910;7.724;2023-04-24T07:36:53;7.68;;;5.93;;
39264;SDS011;42646;51.910;7.724;2023-04-24T07:39:22;7.93;;;5.70;;
39264;SDS011;42646;51.910;7.724;2023-04-24T07:41:50;8.23;;;5.90;;
39264;SDS011;42646;51.910;7.724;2023-04-24T07:44:20;7.68;;;5.40;;
39264;SDS011;42646;51.910;7.724;2023-04-24T07:46:48;7.78;;;5.35;;
39264;SDS011;42646;51.910;7.724;2023-04-24T07:49:16;7.97;;;4.53;;
39264;SDS011;42646;51.910;7.724;2023-04-24T07:51:46;7.75;;;4.68;;
39264;SDS011;42646;51.910;7.724;2023-04-24T07:54:14;7.00;;;4.60;;
39264;SDS011;42646;51.910;7.724;2023-04-24T07:56:43;5.40;;;4.20;;
39264;SDS011;42646;51.910;7.724;2023-04-24T07:59:11;6.25;;;4.75;;
39264;SDS011;42646;51.910;7.724;2023-04-24T08:01:38;6.22;;;4.40;;
39264;SDS011;42646;51.910;7.724;2023-04-24T08:04:06;5.63;;;4.50;;
39264;SDS011;42646;51.910;7.724;2023-04-24T08:06:34;5.63;;;4.40;;
39264;SDS011;42646;51.910;7.724;2023-04-24T08:09:04;5.55;;;4.30;;
39264;SDS011;42646;51.910;7.724;2023-04-24T08:11:34;5.93;;;4.20;;
39264;SDS011;42646;51.910;7.724;2023-04-24T08:14:02;6.43;;;4.35;;
39264;SDS011;42646;51.910;7.724;2023-04-24T08:16:30;5.30;;;3.83;;
39264;SDS011;42646;51.910;7.724;2023-04-24T08:18:57;6.07;;;3.60;;
39264;SDS011;42646;51.910;7.724;2023-04-24T08:21:25;5.97;;;3.65;;
39264;SDS011;42646;51.910;7.724;2023-04-24T08:23:53;5.03;;;3.72;;
39264;SDS011;42646;51.910;7.724;2023-04-24T08:26:22;7.07;;;4.13;;
39264;SDS011;42646;51.910;7.724;2023-04-24T08:28:50;5.63;;;3.63;;
39264;SDS011;42646;51.910;7.724;2023-04-24T08:31:43;4.97;;;3.70;;
39264;SDS011;42646;51.910;7.724;2023-04-24T08:34:11;5.72;;;3.50;;
39264;SDS011;42646;51.910;7.724;2023-04-24T08:36:39;4.50;;;3.20;;
39264;SDS011;42646;51.910;7.724;2023-04-24T08:39:13;5.40;;;3.60;;
39264;SDS011;42646;51.910;7.724;2023-04-24T08:41:43;5.20;;;3.67;;
39264;SDS011;42646;51.910;7.724;2023-04-24T08:44:12;5.25;;;3.45;;
39264;SDS011;42646;51.910;7.724;2023-04-24T08:46:43;4.30;;;2.80;;
39264;SDS011;42646;51.910;7.724;2023-04-24T08:51:43;4.00;;;3.03;;
39264;SDS011;42646;51.910;7.724;2023-04-24T08:54:12;4.10;;;2.67;;
39264;SDS011;42646;51.910;7.724;2023-04-24T08:56:41;4.15;;;2.90;;
39264;SDS011;42646;51.910;7.724;2023-04-24T08:59:12;4.72;;;2.92;;
39264;SDS011;42646;51.910;7.724;2023-04-24T09:01:41;4.78;;;2.67;;
39264;SDS011;42646;51.910;7.724;2023-04-24T09:04:10;3.63;;;2.70;;
39264;SDS011;42646;51.910;7.724;2023-04-24T09:06:40;4.47;;;2.80;;
39264;SDS011;42646;51.910;7.724;2023-04-24T09:09:33;4.35;;;3.00;;
39264;SDS011;42646;51.910;7.724;2023-04-24T09:12:04;4.13;;;2.70;;
39264;SDS011;42646;51.910;7.724;2023-04-24T09:14:32;4.47;;;2.60;;
39264;SDS011;42646;51.910;7.724;2023-04-24T09:17:02;3.70;;;2.40;;
39264;SDS011;42646;51.910;7.724;2023-04-24T09:19:32;3.55;;;2.30;;
39264;SDS011;42646;51.910;7.724;2023-04-24T09:21:59;3.75;;;2.30;;
39264;SDS011;42646;51.910;7.724;2023-04-24T09:24:31;3.75;;;2.20;;
39264;SDS011;42646;51.910;7.724;2023-04-24T09:26:59;3.90;;;2.25;;
39264;SDS011;42646;51.910;7.724;2023-04-24T09:29:29;3.53;;;2.17;;
39264;SDS011;42646;51.910;7.724;2023-04-24T09:32:17;3.95;;;2.20;;
39264;SDS011;42646;51.910;7.724;2023-04-24T09:34:48;3.28;;;2.20;;
39264;SDS011;42646;51.910;7.724;2023-04-24T09:37:43;3.28;;;2.00;;
39264;SDS011;42646;51.910;7.724;2023-04-24T09:40:14;3.83;;;2.17;;
39264;SDS011;42646;51.910;7.724;2023-04-24T09:42:51;2.90;;;2.05;;
39264;SDS011;42646;51.910;7.724;2023-04-24T09:45:21;3.75;;;2.55;;
39264;SDS011;42646;51.910;7.724;2023-04-24T09:47:51;3.95;;;2.55;;
39264;SDS011;42646;51.910;7.724;2023-04-24T09:50:19;3.42;;;2.40;;
39264;SDS011;42646;51.910;7.724;2023-04-24T09:52:56;3.58;;;2.50;;
39264;SDS011;42646;51.910;7.724;2023-04-24T09:55:24;3.13;;;2.30;;
39264;SDS011;42646;51.910;7.724;2023-04-24T09:57:54;3.63;;;2.40;;
39264;SDS011;42646;51.910;7.724;2023-04-24T10:00:24;3.47;;;2.50;;
39264;SDS011;42646;51.910;7.724;2023-04-24T10:02:57;4.68;;;2.80;;
39264;SDS011;42646;51.910;7.724;2023-04-24T10:05:29;3.83;;;2.50;;
39264;SDS011;42646;51.910;7.724;2023-04-24T10:08:02;4.25;;;2.90;;
39264;SDS011;42646;51.910;7.724;2023-04-24T10:10:31;3.40;;;2.58;;
39264;SDS011;42646;51.910;7.724;2023-04-24T10:12:59;3.70;;;2.70;;
39264;SDS011;42646;51.910;7.724;2023-04-24T10:15:29;4.53;;;2.92;;
39264;SDS011;42646;51.910;7.724;2023-04-24T10:18:21;3.60;;;2.65;;
39264;SDS011;42646;51.910;7.724;2023-04-24T10:20:50;3.08;;;2.47;;
39264;SDS011;42646;51.910;7.724;2023-04-24T10:23:21;3.67;;;2.65;;
39264;SDS011;42646;51.910;7.724;2023-04-24T10:25:50;3.92;;;2.80;;
39264;SDS011;42646;51.910;7.724;2023-04-24T10:28:18;3.40;;;2.67;;
39264;SDS011;42646;51.910;7.724;2023-04-24T10:30:49;4.57;;;2.80;;
39264;SDS011;42646;51.910;7.724;2023-04-24T10:33:21;3.58;;;2.45;;
39264;SDS011;42646;51.910;7.724;2023-04-24T10:35:52;3.20;;;2.53;;
39264;SDS011;42646;51.910;7.724;2023-04-24T10:38:22;3.47;;;2.58;;
39264;SDS011;42646;51.910;7.724;2023-04-24T10:43:25;3.53;;;2.45;;
39264;SDS011;42646;51.910;7.724;2023-04-24T10:46:03;4.10;;;2.70;;
39264;SDS011;42646;51.910;7.724;2023-04-24T10:48:34;3.70;;;2.60;;
39264;SDS011;42646;51.910;7.724;2023-04-24T10:51:01;5.40;;;3.20;;
39264;SDS011;42646;51.910;7.724;2023-04-24T10:53:31;4.95;;;2.90;;
39264;SDS011;42646;51.910;7.724;2023-04-24T10:56:03;4.65;;;3.20;;
39264;SDS011;42646;51.910;7.724;2023-04-24T10:58:36;8.90;;;3.55;;
39264;SDS011;42646;51.910;7.724;2023-04-24T11:01:07;5.55;;;3.42;;
39264;SDS011;42646;51.910;7.724;2023-04-24T11:03:35;5.88;;;3.83;;
39264;SDS011;42646;51.910;7.724;2023-04-24T11:06:04;4.63;;;3.28;;
39264;SDS011;42646;51.910;7.724;2023-04-24T11:08:37;6.43;;;3.63;;
39264;SDS011;42646;51.910;7.724;2023-04-24T11:11:08;5.38;;;3.22;;
39264;SDS011;42646;51.910;7.724;2023-04-24T11:16:31;5.45;;;3.30;;
39264;SDS011;42646;51.910;7.724;2023-04-24T11:19:25;5.35;;;3.00;;
39264;SDS011;42646;51.910;7.724;2023-04-24T11:21:56;5.53;;;3.38;;
39264;SDS011;42646;51.910;7.724;2023-04-24T11:24:30;5.13;;;3.47;;
39264;SDS011;42646;51.910;7.724;2023-04-24T11:27:05;7.25;;;3.35;;
39264;SDS011;42646;51.910;7.724;2023-04-24T11:29:42;6.93;;;3.03;;
39264;SDS011;42646;51.910;7.724;2023-04-24T11:32:16;5.03;;;3.15;;
39264;SDS011;42646;51.910;7.724;2023-04-24T11:34:47;4.68;;;3.22;;
39264;SDS011;42646;51.910;7.724;2023-04-24T11:37:16;5.63;;;3.20;;
39264;SDS011;42646;51.910;7.724;2023-04-24T11:39:43;5.75;;;3.70;;
39264;SDS011;42646;51.910;7.724;2023-04-24T11:42:12;7.43;;;4.07;;
39264;SDS011;42646;51.910;7.724;2023-04-24T11:44:42;5.87;;;3.50;;
39264;SDS011;42646;51.910;7.724;2023-04-24T11:47:14;5.32;;;3.50;;
39264;SDS011;42646;51.910;7.724;2023-04-24T11:49:49;5.43;;;3.70;;
39264;SDS011;42646;51.910;7.724;2023-04-24T11:52:19;6.40;;;3.95;;
39264;SDS011;42646;51.910;7.724;2023-04-24T11:54:48;7.10;;;4.40;;
39264;SDS011;42646;51.910;7.724;2023-04-24T11:57:18;6.85;;;4.18;;
39264;SDS011;42646;51.910;7.724;2023-04-24T11:59:48;6.68;;;3.75;;
39264;SDS011;42646;51.910;7.724;2023-04-24T12:02:20;5.45;;;3.25;;
39264;SDS011;42646;51.910;7.724;2023-04-24T12:04:50;6.60;;;3.60;;
39264;SDS011;42646;51.910;7.724;2023-04-24T12:07:19;6.68;;;4.00;;
39264;SDS011;42646;51.910;7.724;2023-04-24T12:09:48;7.03;;;3.85;;
39264;SDS011;42646;51.910;7.724;2023-04-24T12:12:18;8.82;;;3.85;;
39264;SDS011;42646;51.910;7.724;2023-04-24T12:14:49;8.68;;;4.05;;
39264;SDS011;42646;51.910;7.724;2023-04-24T12:17:24;9.27;;;4.72;;
39264;SDS011;42646;51.910;7.724;2023-04-24T12:19:58;9.40;;;4.47;;
39264;SDS011;42646;51.910;7.724;2023-04-24T12:22:42;9.73;;;4.53;;
39264;SDS011;42646;51.910;7.724;2023-04-24T12:27:38;9.95;;;4.97;;
39264;SDS011;42646;51.910;7.724;2023-04-24T12:30:10;6.25;;;3.80;;
39264;SDS011;42646;51.910;7.724;2023-04-24T12:32:41;11.35;;;4.55;;
39264;SDS011;42646;51.910;7.724;2023-04-24T12:35:12;9.80;;;4.65;;
39264;SDS011;42646;51.910;7.724;2023-04-24T12:37:41;12.00;;;5.45;;
39264;SDS011;42646;51.910;7.724;2023-04-24T12:40:12;9.52;;;4.97;;
39264;SDS011;42646;51.910;7.724;2023-04-24T12:42:43;9.77;;;5.10;;
39264;SDS011;42646;51.910;7.724;2023-04-24T12:45:12;11.55;;;4.93;;
39264;SDS011;42646;51.910;7.724;2023-04-24T12:47:41;8.90;;;4.60;;
39264;SDS011;42646;51.910;7.724;2023-04-24T12:50:14;9.52;;;4.90;;
39264;SDS011;42646;51.910;7.724;2023-04-24T12:52:44;10.77;;;5.20;;
39264;SDS011;42646;51.910;7.724;2023-04-24T12:55:13;8.98;;;5.07;;
39264;SDS011;42646;51.910;7.724;2023-04-24T12:57:40;10.10;;;5.05;;
39264;SDS011;42646;51.910;7.724;2023-04-24T13:00:10;8.88;;;4.28;;
39264;SDS011;42646;51.910;7.724;2023-04-24T13:02:39;13.63;;;5.00;;
39264;SDS011;42646;51.910;7.724;2023-04-24T13:05:08;10.13;;;4.38;;
39264;SDS011;42646;51.910;7.724;2023-04-24T13:07:40;13.30;;;4.97;;
39264;SDS011;42646;51.910;7.724;2023-04-24T13:10:08;10.73;;;4.68;;
39264;SDS011;42646;51.910;7.724;2023-04-24T13:12:38;13.60;;;5.70;;
39264;SDS011;42646;51.910;7.724;2023-04-24T13:15:07;11.98;;;6.30;;
39264;SDS011;42646;51.910;7.724;2023-04-24T13:17:35;12.15;;;6.03;;
39264;SDS011;42646;51.910;7.724;2023-04-24T13:20:03;10.23;;;4.85;;
39264;SDS011;42646;51.910;7.724;2023-04-24T13:22:32;8.68;;;4.43;;
39264;SDS011;42646;51.910;7.724;2023-04-24T13:25:01;8.18;;;4.35;;
39264;SDS011;42646;51.910;7.724;2023-04-24T13:27:30;12.07;;;5.05;;
39264;SDS011;42646;51.910;7.724;2023-04-24T13:29:57;10.73;;;5.00;;
39264;SDS011;42646;51.910;7.724;2023-04-24T13:32:26;7.90;;;4.70;;
39264;SDS011;42646;51.910;7.724;2023-04-24T13:34:55;8.95;;;5.03;;
39264;SDS011;42646;51.910;7.724;2023-04-24T13:37:24;12.85;;;5.53;;
39264;SDS011;42646;51.910;7.724;2023-04-24T13:39:52;11.40;;;5.63;;
39264;SDS011;42646;51.910;7.724;2023-04-24T13:42:21;10.23;;;5.05;;
39264;SDS011;42646;51.910;7.724;2023-04-24T13:44:50;8.88;;;4.53;;
39264;SDS011;42646;51.910;7.724;2023-04-24T13:47:18;12.05;;;5.05;;
39264;SDS011;42646;51.910;7.724;2023-04-24T13:49:51;8.35;;;4.30;;
39264;SDS011;42646;51.910;7.724;2023-04-24T13:52:22;8.07;;;4.40;;
39264;SDS011;42646;51.910;7.724;2023-04-24T13:54:49;9.73;;;3.60;;
39264;SDS011;42646;51.910;7.724;2023-04-24T13:57:19;9.52;;;3.70;;
39264;SDS011;42646;51.910;7.724;2023-04-24T13:59:49;6.63;;;3.60;;
39264;SDS011;42646;51.910;7.724;2023-04-24T14:02:17;7.03;;;3.20;;
39264;SDS011;42646;51.910;7.724;2023-04-24T14:04:45;6.78;;;3.22;;
39264;SDS011;42646;51.910;7.724;2023-04-24T14:07:15;6.95;;;3.00;;
39264;SDS011;42646;51.910;7.724;2023-04-24T14:09:43;7.45;;;3.17;;
39264;SDS011;42646;51.910;7.724;2023-04-24T14:12:13;6.05;;;3.00;;
39264;SDS011;42646;51.910;7.724;2023-04-24T14:14:44;9.50;;;2.87;;
39264;SDS011;42646;51.910;7.724;2023-04-24T14:17:13;6.25;;;2.78;;
39264;SDS011;42646;51.910;7.724;2023-04-24T14:20:08;6.15;;;2.60;;
39264;SDS011;42646;51.910;7.724;2023-04-24T14:22:36;4.93;;;2.53;;
39264;SDS011;42646;51.910;7.724;2023-04-24T14:25:05;4.60;;;2.03;;
39264;SDS011;42646;51.910;7.724;2023-04-24T14:27:33;5.05;;;2.15;;
39264;SDS011;42646;51.910;7.724;2023-04-24T14:30:02;6.28;;;2.65;;
39264;SDS011;42646;51.910;7.724;2023-04-24T14:32:31;4.05;;;2.17;;
39264;SDS011;42646;51.910;7.724;2023-04-24T14:34:59;5.07;;;2.17;;
39264;SDS011;42646;51.910;7.724;2023-04-24T14:37:27;4.47;;;2.13;;
39264;SDS011;42646;51.910;7.724;2023-04-24T14:39:57;4.00;;;2.17;;
39264;SDS011;42646;51.910;7.724;2023-04-24T14:42:47;5.70;;;2.38;;
39264;SDS011;42646;51.910;7.724;2023-04-24T14:45:19;6.80;;;2.63;;
39264;SDS011;42646;51.910;7.724;2023-04-24T14:47:50;6.32;;;2.20;;
39264;SDS011;42646;51.910;7.724;2023-04-24T14:50:19;7.35;;;2.40;;
39264;SDS011;42646;51.910;7.724;2023-04-24T14:52:50;6.17;;;2.47;;
39264;SDS011;42646;51.910;7.724;2023-04-24T14:55:17;4.25;;;2.10;;
39264;SDS011;42646;51.910;7.724;2023-04-24T14:57:45;5.28;;;2.17;;
39264;SDS011;42646;51.910;7.724;2023-04-24T15:00:14;3.72;;;2.20;;
39264;SDS011;42646;51.910;7.724;2023-04-24T15:02:46;5.00;;;2.10;;
39264;SDS011;42646;51.910;7.724;2023-04-24T15:05:40;6.10;;;2.10;;
39264;SDS011;42646;51.910;7.724;2023-04-24T15:08:08;4.05;;;1.90;;
39264;SDS011;42646;51.910;7.724;2023-04-24T15:10:38;6.22;;;2.20;;
39264;SDS011;42646;51.910;7.724;2023-04-24T15:13:05;3.95;;;2.25;;
39264;SDS011;42646;51.910;7.724;2023-04-24T15:15:33;4.93;;;2.40;;
39264;SDS011;42646;51.910;7.724;2023-04-24T15:18:05;4.75;;;2.15;;
39264;SDS011;42646;51.910;7.724;2023-04-24T15:20:34;4.72;;;2.17;;
39264;SDS011;42646;51.910;7.724;2023-04-24T15:23:05;6.05;;;2.33;;
39264;SDS011;42646;51.910;7.724;2023-04-24T15:25:34;5.88;;;2.40;;
39264;SDS011;42646;51.910;7.724;2023-04-24T15:28:07;4.13;;;2.13;;